Airfield :
LOGIN :

Register | Disclaimer

   EN    FR    IT 

 










Legend :    VFR   Marginal VFR   IFR   Intensive IFR   Very Intensive IFR
Visi :
Ceiling :
>= 8 km
>= 3000ft
5 to 8 km
1000 to 3000 ft
1500m to 5 km
500 to 1000 ft
800 to 1500m
200 to 500 ft
< 800m
< 200 ft
Symbols :   Thunderstorms  Fog  Heavy snow  Heavy precipitations  Wind > 20 kt
SIGMETs :     Misc.  Thunderstorms  Icing  Turbulence  Mountain Waves  Volcanic Ashes







- Airport Elevation : 171 ft
- IATA code : EGC
- Download approach charts


LFBE - Bergerac

CURRENT METAR :
  • 222330Z AUTO 16001KT CAVOK 10/09 Q1017 NOSIG

EXPIRED METARs :
  • 222300Z AUTO VRB02KT CAVOK 10/09 Q1017
  • 222230Z AUTO VRB01KT CAVOK 11/10 Q1018
  • 222200Z AUTO VRB02KT CAVOK 12/10 Q1018
  • 222130Z AUTO 00000KT CAVOK 12/10 Q1018
  • 222100Z AUTO 13002KT CAVOK 13/11 Q1018

TAF TAF LFBE
Valid from the 23 at 00:00 until the 24 at 00:00 UTC


222300Z 2300/2324 03005KT CAVOK
PROB30
TEMPO 2303/2306 1500 BCFG
BECMG 2314/2316 30010KT
TEMPO 2320/2324 SHRA BKN060TCU
No reported NOTAMs for that airfield.



MET'MAP, your aeronautical weather chart ! - Copyright ORBIFLY December 2007 - Disclaimer

ORBIFLY MET'MAP TEAM :

Programming & Development : Alexandra Zaïnal
Concept & Development : Baudouin d'Aumeries
Co-Development & Prog : Marc-Olivier Méhu
Technical & hardware support : Manuel Goepfert

Contact : metmap@orbifly.com




SOURCES & CREDITS :

   NOAA